Mooresburg, Tennessee
Current Conditions -  °F | °C
As of 6:15 AM on Wednesday 26 Nov 2014 (Local Time) from KMOR Reporting Station
Overcast Overcast  
Wind Chill: 43°   Ceiling: 9500
Heat Index: 43°   Visibility: 10mi
Dew Point: 32°   Wind: 3mph
Humidity: 66%   Direction: 270°W
Pressure: 29.97"   Gusts: NA
Location:  36.35°N, 83.23°W
Report Text: KMOR 261115Z AUTO 27003KT 10SM OVC095 06/00 A2997 RMK
Loading
Personal Weather Stations






























Interactive Weather Map New forecast layout! Learn more

10-Day Weather Forecast

Advertisements
Track Severe Weather on mobile